createdAt,value
2019-02-16T00:01:32.430Z,14.12
2019-02-16T00:06:41.250Z,14.60
2019-02-16T00:11:49.977Z,14.74
2019-02-16T00:16:58.410Z,14.13
2019-02-16T00:22:07.513Z,14.68
2019-02-16T00:27:15.882Z,13.66
2019-02-16T00:32:24.828Z,13.77
2019-02-16T00:37:33.242Z,14.75
2019-02-16T00:42:41.947Z,15.42
2019-02-16T00:47:50.324Z,14.02
2019-02-16T00:52:59.068Z,15.09
2019-02-16T00:58:07.624Z,16.17
2019-02-16T01:03:16.302Z,14.06
2019-02-16T01:08:24.793Z,14.48
2019-02-16T01:13:33.549Z,14.11
2019-02-16T01:18:41.958Z,14.99
2019-02-16T01:23:50.773Z,14.19
2019-02-16T01:28:59.168Z,14.43
2019-02-16T01:34:07.977Z,15.52
2019-02-16T01:39:16.391Z,15.57
2019-02-16T01:44:25.173Z,14.70
2019-02-16T01:49:33.553Z,14.17
2019-02-16T01:54:42.278Z,14.29
2019-02-16T01:59:50.690Z,13.68
2019-02-16T02:04:59.539Z,11.89
2019-02-16T02:10:06.481Z,15.01
2019-02-16T02:15:15.176Z,13.22
2019-02-16T02:20:23.577Z,14.70
2019-02-16T02:25:32.592Z,13.94
2019-02-16T02:30:41.019Z,13.77
2019-02-16T02:35:49.688Z,12.88
2019-02-16T02:40:58.106Z,12.81
2019-02-16T02:46:07.051Z,14.03
2019-02-16T02:51:15.489Z,13.53
2019-02-16T02:56:24.190Z,13.18
2019-02-16T03:01:32.612Z,13.74
2019-02-16T03:06:41.305Z,14.16
2019-02-16T03:11:49.773Z,12.86
2019-02-16T03:16:58.615Z,14.31
2019-02-16T03:22:07.007Z,13.48
2019-02-16T03:27:15.952Z,13.04
2019-02-16T03:32:24.527Z,13.87
2019-02-16T03:37:32.873Z,13.84
2019-02-16T03:42:41.316Z,13.22
2019-02-16T03:47:49.981Z,13.14
2019-02-16T03:52:58.446Z,12.86
2019-02-16T03:58:07.405Z,14.42
2019-02-16T04:03:15.861Z,13.61
2019-02-16T04:08:24.734Z,12.67
2019-02-16T04:13:33.325Z,13.45
2019-02-16T04:18:42.026Z,13.84
2019-02-16T04:23:50.431Z,13.31
2019-02-16T04:28:59.271Z,13.60
2019-02-16T04:34:07.696Z,12.46
2019-02-16T04:39:16.334Z,12.33
2019-02-16T04:44:24.916Z,12.88
2019-02-16T04:49:34.652Z,13.12
2019-02-16T04:54:43.010Z,12.76
2019-02-16T04:59:51.746Z,12.04
2019-02-16T05:05:00.142Z,12.46
2019-02-16T05:10:08.830Z,11.00
2019-02-16T05:15:17.161Z,13.02
2019-02-16T05:20:25.943Z,12.87
2019-02-16T05:25:34.321Z,12.54
2019-02-16T05:30:43.669Z,11.55
2019-02-16T05:35:52.092Z,13.70
2019-02-16T05:41:01.110Z,16.09
2019-02-16T05:46:09.676Z,13.50
2019-02-16T05:51:18.588Z,14.26
2019-02-16T05:56:26.941Z,13.47
2019-02-16T06:01:35.792Z,15.26
2019-02-16T06:06:44.148Z,13.08
2019-02-16T06:11:53.147Z,13.59
2019-02-16T06:17:01.419Z,14.30
2019-02-16T06:22:10.228Z,13.39
2019-02-16T06:27:19.067Z,13.94
2019-02-16T06:32:27.805Z,33.54
2019-02-16T06:37:36.497Z,17.18
2019-02-16T06:42:45.322Z,13.30
2019-02-16T06:47:52.284Z,13.41
2019-02-16T06:53:01.034Z,17.70
2019-02-16T06:58:09.391Z,16.92
2019-02-16T07:03:18.439Z,15.13
2019-02-16T07:08:26.790Z,15.53
2019-02-16T07:13:35.637Z,13.03
2019-02-16T07:18:44.029Z,13.63
2019-02-16T07:23:52.722Z,16.87
2019-02-16T07:29:01.131Z,15.27
2019-02-16T07:34:10.162Z,14.80
2019-02-16T07:39:18.587Z,16.20
2019-02-16T07:44:27.492Z,14.83
2019-02-16T07:49:56.808Z,14.78
2019-02-16T07:54:45.238Z,14.96
2019-02-16T07:59:53.702Z,12.86
2019-02-16T08:05:02.516Z,13.05
2019-02-16T08:10:10.905Z,15.83
2019-02-16T08:15:19.708Z,15.07
2019-02-16T08:20:28.128Z,13.76
2019-02-16T08:25:36.882Z,12.61
2019-02-16T08:30:45.275Z,13.58
2019-02-16T08:35:53.950Z,13.48
2019-02-16T08:41:02.401Z,14.16
2019-02-16T08:46:11.347Z,14.98
2019-02-16T08:51:20.108Z,15.42
2019-02-16T08:56:27.313Z,14.61
2019-02-16T09:06:41.385Z,14.89
2019-02-16T09:11:50.541Z,17.21
2019-02-16T09:17:30.072Z,14.71
2019-02-16T10:59:15.655Z,19.18
2019-02-16T11:09:19.481Z,18.36
2019-02-16T11:19:38.702Z,18.55
2019-02-16T12:05:42.303Z,19.26
2019-02-16T12:30:55.321Z,21.00
2019-02-16T12:41:09.242Z,21.95
2019-02-16T14:28:15.672Z,20.98
2019-02-16T14:53:39.007Z,22.60
2019-02-16T14:58:47.503Z,23.21
2019-02-16T15:14:19.839Z,22.12
2019-02-16T15:29:19.458Z,22.85
2019-02-16T15:49:17.472Z,24.16
2019-02-16T16:55:36.287Z,25.34
2019-02-16T17:00:45.321Z,23.90
2019-02-16T17:05:53.902Z,24.69
2019-02-16T17:11:02.368Z,24.93
2019-02-16T17:16:11.016Z,23.13
2019-02-16T17:21:19.110Z,28.58
2019-02-16T17:26:27.900Z,23.15
2019-02-16T17:31:36.242Z,25.62
2019-02-16T17:36:45.106Z,25.39
2019-02-16T17:41:53.582Z,24.87
2019-02-16T17:47:02.439Z,25.23
2019-02-16T17:52:11.469Z,27.08
2019-02-16T17:57:20.052Z,26.26
2019-02-16T18:02:28.380Z,27.61
2019-02-16T18:07:36.827Z,29.65
2019-02-16T18:12:45.206Z,40.13
2019-02-16T18:17:53.840Z,40.85
2019-02-16T18:23:03.026Z,51.57
2019-02-16T18:28:11.418Z,41.60
2019-02-16T18:33:19.884Z,48.76
2019-02-16T18:38:28.553Z,40.46
2019-02-16T18:43:37.008Z,35.65
2019-02-16T18:48:45.737Z,33.37
2019-02-16T18:53:54.605Z,30.73
2019-02-16T18:59:03.515Z,35.45
2019-02-16T19:04:12.390Z,42.22
2019-02-16T19:09:21.849Z,42.73
2019-02-16T19:14:31.359Z,36.75
2019-02-16T19:19:40.232Z,35.93
2019-02-16T19:24:48.669Z,36.71
2019-02-16T19:29:57.487Z,35.49
2019-02-16T19:35:05.990Z,35.12
2019-02-16T19:40:14.558Z,33.75
2019-02-16T19:45:23.584Z,35.84
2019-02-16T19:50:32.742Z,33.32
2019-02-16T19:55:42.769Z,36.86
2019-02-16T20:00:41.093Z,43.65
2019-02-16T20:05:49.513Z,39.13
2019-02-16T20:10:58.290Z,37.87
2019-02-16T20:16:06.729Z,38.78
2019-02-16T20:21:15.387Z,44.50
2019-02-16T20:26:23.793Z,38.80
2019-02-16T20:31:32.754Z,43.97
2019-02-16T20:36:41.424Z,54.65
2019-02-16T20:41:49.807Z,51.61
2019-02-16T20:46:58.570Z,47.46
2019-02-16T20:52:07.080Z,46.02
2019-02-16T20:57:16.044Z,45.13
2019-02-16T21:02:23.063Z,47.09
2019-02-16T21:07:32.029Z,50.52
2019-02-16T21:12:40.674Z,46.89
2019-02-16T21:17:49.469Z,47.20
2019-02-16T21:22:58.452Z,40.75
2019-02-16T21:28:12.007Z,37.75
2019-02-16T21:33:10.362Z,33.35
2019-02-16T21:38:20.100Z,35.30
2019-02-16T21:43:28.504Z,36.85
2019-02-16T21:48:37.241Z,36.75
2019-02-16T21:53:45.768Z,38.17
2019-02-16T21:58:54.868Z,41.56
2019-02-16T22:04:03.350Z,39.01
2019-02-16T22:09:12.091Z,37.83
2019-02-16T22:14:20.532Z,36.95
2019-02-16T22:19:29.053Z,33.96
2019-02-16T22:24:37.411Z,32.79
2019-02-16T22:29:46.645Z,32.04
2019-02-16T22:34:54.969Z,33.51
2019-02-16T22:40:03.782Z,36.71
2019-02-16T22:45:12.167Z,31.71
2019-02-16T22:50:21.301Z,31.98
2019-02-16T22:55:29.889Z,31.83
2019-02-16T23:00:38.580Z,32.93
2019-02-16T23:05:47.314Z,30.92
2019-02-16T23:10:55.785Z,32.29
2019-02-16T23:16:08.426Z,30.11
2019-02-16T23:21:10.387Z,28.50
2019-02-16T23:26:11.636Z,29.96
2019-02-16T23:31:10.440Z,27.78
2019-02-16T23:36:19.686Z,27.47
2019-02-16T23:41:28.113Z,27.66
2019-02-16T23:46:35.461Z,28.32
2019-02-16T23:51:44.628Z,25.71
2019-02-16T23:56:53.390Z,24.22
